Atlanta, GA (31141)

9:03 AM EST on November 24, 2014 (GMT -0500)
Georgia Tech (Midtown) | Change Station
CLOSE
Current Station
Personal Weather Station
Location: Atlanta, GA
Elevation: 935 ft
Nearby Weather Stations

Elev 935 ft 33.78 °N, 84.40 °W | Updated 1 second ago

Clear
Clear
63.7 °F
Feels Like 63.7 °F
N
5.0
Wind Variable Wind from SSE
Gusts 5.0 mph

Today
High -- | Low -- °F
--% Chance of Precip.
Yesterday
High -- | Low -- °F
Precip. -- in
7:18 AM 5:30 PM
Waxing Crescent, 5% visible
Pressure 29.77 in
Visibility 10.0 miles
Clouds Clear
Dew Point 59 °F
Humidity 84%
Rainfall 0.00 in
Snow Depth Not available.
UV 1 out of 12
Pollen 1.30 out of 12
Air Quality Not available.
Flu Activity Not available.
METAR KFTY 241353Z 21006KT 10SM CLR 18/15 A2978 RMK AO2 SLP080 T01780150

More Conditions Fewer Conditions

Pressure 29.77 in
Visibility 10.0 miles
Clouds Clear
Dew Point 59 °F
Humidity 84%
Rainfall 0.00 in
Snow Depth Not available.
UV 1 out of 12
Pollen 1.30 out of 12
Air Quality Not available.
Flu Activity Not available.
METAR KFTY 241353Z 21006KT 10SM CLR 18/15 A2978 RMK AO2 SLP080 T01780150

More Conditions Fewer Conditions

10-Day Weather Forecast

Almanac

Astronomy

Nov. 24, 2014 Rise Set
Actual Time
Civil Twilight
Nautical Twilight
Astronomical Twilight
Moon
Length of Visible Light
Length of Day
Tomorrow will be .
, % of the Moon is Illuminated

Today's Extremes

State Highs State Lows

Community

WunderPhotos

Upload Photos

1,773,332 photos uploaded!

WunderBlogs® & News

Nearby

Air Quality

  Air Quality AQ Index Pollutant
Not available.

Snow Depth

Station Depth Elevation

Earthquake Activity

City Distance Mag. Time & Date
Minimum magnitude displayed is 2.5.

Coastal Water Temperatures

Place Temperature

Nearby Weather Stations